Aviation Digital Data Service (ADDS)

Output produced by METARs form (1331 UTC 20 July 2019)
found at http://www.aviationweather.gov/metar/data/
 
METAR text: VIDP 201300Z 00000KT 2800 BR SCT030 BKN100 29/26 Q1002 BECMG 3000 BR
Conditions at: VIDP (INDIRA GANDHI/DE, IN) observed 1300 UTC 20 July 2019
Temperature: 29.0°C (84°F)
Dewpoint: 26.0°C (79°F) [RH = 84%]
Pressure (altimeter): 29.59 inches Hg (1002.0 mb)
Winds: calm
Visibility: 1.74 miles (2.80 km)
Ceiling: 10000 feet AGL
Clouds: scattered clouds at 3000 feet AGL
broken clouds at 10000 feet AGL
Weather: BR  (mist)

METAR text: VIDP 201230Z 21005KT 2500 -RA SCT030 FEW035CB OVC080 29/26 Q1001 NOSIG
Conditions at: VIDP (INDIRA GANDHI/DE, IN) observed 1230 UTC 20 July 2019
Temperature: 29.0°C (84°F)
Dewpoint: 26.0°C (79°F) [RH = 84%]
Pressure (altimeter): 29.56 inches Hg (1001.0 mb)
Winds: from the SSW (210 degrees) at 6 MPH (5 knots; 2.6 m/s)
Visibility: 1.55 miles (2.49 km)
Ceiling: 8000 feet AGL
Clouds: scattered clouds at 3000 feet AGL
few clouds at 3500 feet AGL
overcast cloud deck at 8000 feet AGL
Weather: -RA  (light rain)

METAR text: VIDP 201200Z 21003KT 2500 -DZ SCT030 FEW035CB OVC080 29/26 Q1001 NOSIG
Conditions at: VIDP (INDIRA GANDHI/DE, IN) observed 1200 UTC 20 July 2019
Temperature: 29.0°C (84°F)
Dewpoint: 26.0°C (79°F) [RH = 84%]
Pressure (altimeter): 29.56 inches Hg (1001.0 mb)
Winds: from the SSW (210 degrees) at 3 MPH (3 knots; 1.5 m/s)
Visibility: 1.55 miles (2.49 km)
Ceiling: 8000 feet AGL
Clouds: scattered clouds at 3000 feet AGL
few clouds at 3500 feet AGL
overcast cloud deck at 8000 feet AGL
Weather: -DZ  (light drizzle)

METAR text: VIDP 201130Z 21005KT 2500 BR SCT030 FEW035CB OVC080 29/25 Q1002 TEMPO 25010G25KT 1500 TSRA
Conditions at: VIDP (INDIRA GANDHI/DE, IN) observed 1130 UTC 20 July 2019
Temperature: 29.0°C (84°F)
Dewpoint: 25.0°C (77°F) [RH = 79%]
Pressure (altimeter): 29.59 inches Hg (1002.0 mb)
Winds: from the SSW (210 degrees) at 6 MPH (5 knots; 2.6 m/s)
Visibility: 1.55 miles (2.49 km)
Ceiling: 8000 feet AGL
Clouds: scattered clouds at 3000 feet AGL
few clouds at 3500 feet AGL
overcast cloud deck at 8000 feet AGL
Weather: BR  (mist)

METAR text: VIDP 201100Z 20006KT 2500 BR SCT030 FEW035CB OVC080 30/25 Q1003 TEMPO 25010G25KT 1500 TSRA
Conditions at: VIDP (INDIRA GANDHI/DE, IN) observed 1100 UTC 20 July 2019
Temperature: 30.0°C (86°F)
Dewpoint: 25.0°C (77°F) [RH = 75%]
Pressure (altimeter): 29.62 inches Hg (1003.0 mb)
Winds: from the SSW (200 degrees) at 7 MPH (6 knots; 3.1 m/s)
Visibility: 1.55 miles (2.49 km)
Ceiling: 8000 feet AGL
Clouds: scattered clouds at 3000 feet AGL
few clouds at 3500 feet AGL
overcast cloud deck at 8000 feet AGL
Weather: BR  (mist)

METAR text: VIDP 201030Z 17004KT 2500 BR SCT030 FEW035CB OVC080 30/26 Q1003 TEMPO 25010G25KT 1500 TSRA
Conditions at: VIDP (INDIRA GANDHI/DE, IN) observed 1030 UTC 20 July 2019
Temperature: 30.0°C (86°F)
Dewpoint: 26.0°C (79°F) [RH = 79%]
Pressure (altimeter): 29.62 inches Hg (1003.0 mb)
Winds: from the S (170 degrees) at 5 MPH (4 knots; 2.1 m/s)
Visibility: 1.55 miles (2.49 km)
Ceiling: 8000 feet AGL
Clouds: scattered clouds at 3000 feet AGL
few clouds at 3500 feet AGL
overcast cloud deck at 8000 feet AGL
Weather: BR  (mist)

METAR text: VIDP 201000Z 12004KT 2500 BR SCT030 FEW035CB OVC080 30/25 Q1002 TEMPO 25010G25KT 1500 TSRA
Conditions at: VIDP (INDIRA GANDHI/DE, IN) observed 1000 UTC 20 July 2019
Temperature: 30.0°C (86°F)
Dewpoint: 25.0°C (77°F) [RH = 75%]
Pressure (altimeter): 29.59 inches Hg (1002.0 mb)
Winds: from the ESE (120 degrees) at 5 MPH (4 knots; 2.1 m/s)
Visibility: 1.55 miles (2.49 km)
Ceiling: 8000 feet AGL
Clouds: scattered clouds at 3000 feet AGL
few clouds at 3500 feet AGL
overcast cloud deck at 8000 feet AGL
Weather: BR  (mist)

METAR text: VIDP 200930Z 10005KT 2000 BR SCT030 FEW035CB OVC080 29/24 Q1002 TEMPO TSRA
Conditions at: VIDP (INDIRA GANDHI/DE, IN) observed 0930 UTC 20 July 2019
Temperature: 29.0°C (84°F)
Dewpoint: 24.0°C (75°F) [RH = 74%]
Pressure (altimeter): 29.59 inches Hg (1002.0 mb)
Winds: from the E (100 degrees) at 6 MPH (5 knots; 2.6 m/s)
Visibility: 1.24 miles (2.00 km)
Ceiling: 8000 feet AGL
Clouds: scattered clouds at 3000 feet AGL
few clouds at 3500 feet AGL
overcast cloud deck at 8000 feet AGL
Weather: BR  (mist)

METAR text: VIDP 200900Z 09006KT 2500 -TSRA SCT030 FEW035CB OVC080 26/24 Q1003 TEMPO TSRA
Conditions at: VIDP (INDIRA GANDHI/DE, IN) observed 0900 UTC 20 July 2019
Temperature: 26.0°C (79°F)
Dewpoint: 24.0°C (75°F) [RH = 89%]
Pressure (altimeter): 29.62 inches Hg (1003.0 mb)
Winds: from the E (90 degrees) at 7 MPH (6 knots; 3.1 m/s)
Visibility: 1.55 miles (2.49 km)
Ceiling: 8000 feet AGL
Clouds: scattered clouds at 3000 feet AGL
few clouds at 3500 feet AGL
overcast cloud deck at 8000 feet AGL
Weather: -TSRA  (light rain associated with thunderstorm(s))

METAR text: VIDP 200830Z 02010G20KT 2200 SCT030 FEW035CB OVC080 25/24 Q1003 TEMPO 03010G20KT 1500 TSRA
Conditions at: VIDP (INDIRA GANDHI/DE, IN) observed 0830 UTC 20 July 2019
Temperature: 25.0°C (77°F)
Dewpoint: 24.0°C (75°F) [RH = 94%]
Pressure (altimeter): 29.62 inches Hg (1003.0 mb)
Winds: from the NNE (20 degrees) at 12 MPH (10 knots; 5.1 m/s)
gusting to 23 MPH (20 knots; 10.3 m/s)
Visibility: 1.37 miles (2.20 km)
Ceiling: 8000 feet AGL
Clouds: scattered clouds at 3000 feet AGL
few clouds at 3500 feet AGL
overcast cloud deck at 8000 feet AGL
Weather: no significant weather observed at this time

METAR text: VIDP 200800Z 02010G20KT 1500 R28/1800 R29/P2000 SCT030 FEW035CB OVC080 26/25 Q1004 TEMPO 03010G20KT 0800 TSRA
Conditions at: VIDP (INDIRA GANDHI/DE, IN) observed 0800 UTC 20 July 2019
Temperature: 26.0°C (79°F)
Dewpoint: 25.0°C (77°F) [RH = 94%]
Pressure (altimeter): 29.65 inches Hg (1004.0 mb)
Winds: from the NNE (20 degrees) at 12 MPH (10 knots; 5.1 m/s)
gusting to 23 MPH (20 knots; 10.3 m/s)
Visibility: 0.93 miles (1.50 km)
Ceiling: 8000 feet AGL
Clouds: scattered clouds at 3000 feet AGL
few clouds at 3500 feet AGL
overcast cloud deck at 8000 feet AGL
Weather: no significant weather observed at this time

METAR text: VIDP 200730Z 01014KT 2000 -TSRA SCT035 FEW040CB OVC080 29/28 Q1004 TEMPO 03010G20KT 1500 TSRA
Conditions at: VIDP (INDIRA GANDHI/DE, IN) observed 0730 UTC 20 July 2019
Temperature: 29.0°C (84°F)
Dewpoint: 28.0°C (82°F) [RH = 94%]
Pressure (altimeter): 29.65 inches Hg (1004.0 mb)
Winds: from the N (10 degrees) at 16 MPH (14 knots; 7.2 m/s)
Visibility: 1.24 miles (2.00 km)
Ceiling: 8000 feet AGL
Clouds: scattered clouds at 3500 feet AGL
few clouds at 4000 feet AGL
overcast cloud deck at 8000 feet AGL
Weather: -TSRA  (light rain associated with thunderstorm(s))

METAR text: VIDP 200700Z 03006KT 3200 HZ SCT035 FEW040CB BKN100 34/27 Q1004 TEMPO 03010G20KT 1500 TSRA
Conditions at: VIDP (INDIRA GANDHI/DE, IN) observed 0700 UTC 20 July 2019
Temperature: 34.0°C (93°F)
Dewpoint: 27.0°C (81°F) [RH = 67%]
Pressure (altimeter): 29.65 inches Hg (1004.0 mb)
Winds: from the NNE (30 degrees) at 7 MPH (6 knots; 3.1 m/s)
Visibility: 1.99 miles (3.20 km)
Ceiling: 10000 feet AGL
Clouds: scattered clouds at 3500 feet AGL
few clouds at 4000 feet AGL
broken clouds at 10000 feet AGL
Weather: HZ  (haze)

METAR text: VIDP 200630Z 03007KT 3500 HZ SCT035 FEW040CB BKN100 34/26 Q1004 TEMPO 03010G20KT 1500 TSRA
Conditions at: VIDP (INDIRA GANDHI/DE, IN) observed 0630 UTC 20 July 2019
Temperature: 34.0°C (93°F)
Dewpoint: 26.0°C (79°F) [RH = 63%]
Pressure (altimeter): 29.65 inches Hg (1004.0 mb)
Winds: from the NNE (30 degrees) at 8 MPH (7 knots; 3.6 m/s)
Visibility: 2.17 miles (3.49 km)
Ceiling: 10000 feet AGL
Clouds: scattered clouds at 3500 feet AGL
few clouds at 4000 feet AGL
broken clouds at 10000 feet AGL
Weather: HZ  (haze)

METAR text: VIDP 200600Z 08004KT 3500 HZ SCT035 FEW040CB BKN100 34/25 Q1004 NOSIG
Conditions at: VIDP (INDIRA GANDHI/DE, IN) observed 0600 UTC 20 July 2019
Temperature: 34.0°C (93°F)
Dewpoint: 25.0°C (77°F) [RH = 60%]
Pressure (altimeter): 29.65 inches Hg (1004.0 mb)
Winds: from the E (80 degrees) at 5 MPH (4 knots; 2.1 m/s)
Visibility: 2.17 miles (3.49 km)
Ceiling: 10000 feet AGL
Clouds: scattered clouds at 3500 feet AGL
few clouds at 4000 feet AGL
broken clouds at 10000 feet AGL
Weather: HZ  (haze)

METAR text: VIDP 200530Z 20003KT 3500 HZ SCT035 FEW040CB BKN100 34/25 Q1004 NOSIG
Conditions at: VIDP (INDIRA GANDHI/DE, IN) observed 0530 UTC 20 July 2019
Temperature: 34.0°C (93°F)
Dewpoint: 25.0°C (77°F) [RH = 60%]
Pressure (altimeter): 29.65 inches Hg (1004.0 mb)
Winds: from the SSW (200 degrees) at 3 MPH (3 knots; 1.5 m/s)
Visibility: 2.17 miles (3.49 km)
Ceiling: 10000 feet AGL
Clouds: scattered clouds at 3500 feet AGL
few clouds at 4000 feet AGL
broken clouds at 10000 feet AGL
Weather: HZ  (haze)

METAR text: VIDP 200500Z 12004KT 3500 HZ SCT035 FEW040CB BKN100 33/25 Q1004 NOSIG
Conditions at: VIDP (INDIRA GANDHI/DE, IN) observed 0500 UTC 20 July 2019
Temperature: 33.0°C (91°F)
Dewpoint: 25.0°C (77°F) [RH = 63%]
Pressure (altimeter): 29.65 inches Hg (1004.0 mb)
Winds: from the ESE (120 degrees) at 5 MPH (4 knots; 2.1 m/s)
Visibility: 2.17 miles (3.49 km)
Ceiling: 10000 feet AGL
Clouds: scattered clouds at 3500 feet AGL
few clouds at 4000 feet AGL
broken clouds at 10000 feet AGL
Weather: HZ  (haze)

METAR text: VIDP 200430Z 16005KT 3500 HZ SCT035 BKN100 33/25 Q1005 NOSIG
Conditions at: VIDP (INDIRA GANDHI/DE, IN) observed 0430 UTC 20 July 2019
Temperature: 33.0°C (91°F)
Dewpoint: 25.0°C (77°F) [RH = 63%]
Pressure (altimeter): 29.68 inches Hg (1005.0 mb)
Winds: from the SSE (160 degrees) at 6 MPH (5 knots; 2.6 m/s)
Visibility: 2.17 miles (3.49 km)
Ceiling: 10000 feet AGL
Clouds: scattered clouds at 3500 feet AGL
broken clouds at 10000 feet AGL
Weather: HZ  (haze)

METAR text: VIDP 200400Z 14004KT 3500 HZ FEW035 SCT100 33/25 Q1005 NOSIG
Conditions at: VIDP (INDIRA GANDHI/DE, IN) observed 0400 UTC 20 July 2019
Temperature: 33.0°C (91°F)
Dewpoint: 25.0°C (77°F) [RH = 63%]
Pressure (altimeter): 29.68 inches Hg (1005.0 mb)
Winds: from the SE (140 degrees) at 5 MPH (4 knots; 2.1 m/s)
Visibility: 2.17 miles (3.49 km)
Ceiling: at least 12,000 feet AGL
Clouds: few clouds at 3500 feet AGL
scattered clouds at 10000 feet AGL
Weather: HZ  (haze)

METAR text: VIDP 200330Z 11004KT 3500 HZ FEW035 SCT100 33/26 Q1004 NOSIG
Conditions at: VIDP (INDIRA GANDHI/DE, IN) observed 0330 UTC 20 July 2019
Temperature: 33.0°C (91°F)
Dewpoint: 26.0°C (79°F) [RH = 67%]
Pressure (altimeter): 29.65 inches Hg (1004.0 mb)
Winds: from the ESE (110 degrees) at 5 MPH (4 knots; 2.1 m/s)
Visibility: 2.17 miles (3.49 km)
Ceiling: at least 12,000 feet AGL
Clouds: few clouds at 3500 feet AGL
scattered clouds at 10000 feet AGL
Weather: HZ  (haze)

METAR text: VIDP 200300Z 14004KT 3200 HZ FEW035 FEW040CB SCT100 32/26 Q1004 NOSIG
Conditions at: VIDP (INDIRA GANDHI/DE, IN) observed 0300 UTC 20 July 2019
Temperature: 32.0°C (90°F)
Dewpoint: 26.0°C (79°F) [RH = 71%]
Pressure (altimeter): 29.65 inches Hg (1004.0 mb)
Winds: from the SE (140 degrees) at 5 MPH (4 knots; 2.1 m/s)
Visibility: 1.99 miles (3.20 km)
Ceiling: at least 12,000 feet AGL
Clouds: few clouds at 3500 feet AGL
few clouds at 4000 feet AGL
scattered clouds at 10000 feet AGL
Weather: HZ  (haze)

METAR text: VIDP 200230Z 00000KT 3200 HZ FEW035 FEW040CB SCT100 32/26 Q1004 NOSIG
Conditions at: VIDP (INDIRA GANDHI/DE, IN) observed 0230 UTC 20 July 2019
Temperature: 32.0°C (90°F)
Dewpoint: 26.0°C (79°F) [RH = 71%]
Pressure (altimeter): 29.65 inches Hg (1004.0 mb)
Winds: calm
Visibility: 1.99 miles (3.20 km)
Ceiling: at least 12,000 feet AGL
Clouds: few clouds at 3500 feet AGL
few clouds at 4000 feet AGL
scattered clouds at 10000 feet AGL
Weather: HZ  (haze)

METAR text: VIDP 200200Z 00000KT 3200 BR FEW030 SCT100 30/26 Q1004 NOSIG
Conditions at: VIDP (INDIRA GANDHI/DE, IN) observed 0200 UTC 20 July 2019
Temperature: 30.0°C (86°F)
Dewpoint: 26.0°C (79°F) [RH = 79%]
Pressure (altimeter): 29.65 inches Hg (1004.0 mb)
Winds: calm
Visibility: 1.99 miles (3.20 km)
Ceiling: at least 12,000 feet AGL
Clouds: few clouds at 3000 feet AGL
scattered clouds at 10000 feet AGL
Weather: BR  (mist)

METAR text: VIDP 200130Z 09004KT 3200 BR SCT030 BKN100 30/26 Q1004 NOSIG
Conditions at: VIDP (INDIRA GANDHI/DE, IN) observed 0130 UTC 20 July 2019
Temperature: 30.0°C (86°F)
Dewpoint: 26.0°C (79°F) [RH = 79%]
Pressure (altimeter): 29.65 inches Hg (1004.0 mb)
Winds: from the E (90 degrees) at 5 MPH (4 knots; 2.1 m/s)
Visibility: 1.99 miles (3.20 km)
Ceiling: 10000 feet AGL
Clouds: scattered clouds at 3000 feet AGL
broken clouds at 10000 feet AGL
Weather: BR  (mist)

METAR text: VIDP 200100Z 09004KT 3200 BR SCT030 BKN080 29/26 Q1004 NOSIG
Conditions at: VIDP (INDIRA GANDHI/DE, IN) observed 0100 UTC 20 July 2019
Temperature: 29.0°C (84°F)
Dewpoint: 26.0°C (79°F) [RH = 84%]
Pressure (altimeter): 29.65 inches Hg (1004.0 mb)
Winds: from the E (90 degrees) at 5 MPH (4 knots; 2.1 m/s)
Visibility: 1.99 miles (3.20 km)
Ceiling: 8000 feet AGL
Clouds: scattered clouds at 3000 feet AGL
broken clouds at 8000 feet AGL
Weather: BR  (mist)

METAR text: VIDP 200030Z 09004KT 3200 BR SCT030 BKN080 29/26 Q1003 NOSIG
Conditions at: VIDP (INDIRA GANDHI/DE, IN) observed 0030 UTC 20 July 2019
Temperature: 29.0°C (84°F)
Dewpoint: 26.0°C (79°F) [RH = 84%]
Pressure (altimeter): 29.62 inches Hg (1003.0 mb)
Winds: from the E (90 degrees) at 5 MPH (4 knots; 2.1 m/s)
Visibility: 1.99 miles (3.20 km)
Ceiling: 8000 feet AGL
Clouds: scattered clouds at 3000 feet AGL
broken clouds at 8000 feet AGL
Weather: BR  (mist)

METAR text: VIDP 192330Z 14004KT 3500 HZ SCT030 FEW035CB BKN080 30/25 Q1003 NOSIG
Conditions at: VIDP (INDIRA GANDHI/DE, IN) observed 2330 UTC 19 July 2019
Temperature: 30.0°C (86°F)
Dewpoint: 25.0°C (77°F) [RH = 75%]
Pressure (altimeter): 29.62 inches Hg (1003.0 mb)
Winds: from the SE (140 degrees) at 5 MPH (4 knots; 2.1 m/s)
Visibility: 2.17 miles (3.49 km)
Ceiling: 8000 feet AGL
Clouds: scattered clouds at 3000 feet AGL
few clouds at 3500 feet AGL
broken clouds at 8000 feet AGL
Weather: HZ  (haze)

METAR text: VIDP 192300Z 13003KT 3500 HZ SCT030 FEW035CB BKN080 30/25 Q1003 NOSIG
Conditions at: VIDP (INDIRA GANDHI/DE, IN) observed 2300 UTC 19 July 2019
Temperature: 30.0°C (86°F)
Dewpoint: 25.0°C (77°F) [RH = 75%]
Pressure (altimeter): 29.62 inches Hg (1003.0 mb)
Winds: from the SE (130 degrees) at 3 MPH (3 knots; 1.5 m/s)
Visibility: 2.17 miles (3.49 km)
Ceiling: 8000 feet AGL
Clouds: scattered clouds at 3000 feet AGL
few clouds at 3500 feet AGL
broken clouds at 8000 feet AGL
Weather: HZ  (haze)

METAR text: VIDP 192230Z 13003KT 3500 HZ FEW030 SCT100 30/25 Q1003 NOSIG
Conditions at: VIDP (INDIRA GANDHI/DE, IN) observed 2230 UTC 19 July 2019
Temperature: 30.0°C (86°F)
Dewpoint: 25.0°C (77°F) [RH = 75%]
Pressure (altimeter): 29.62 inches Hg (1003.0 mb)
Winds: from the SE (130 degrees) at 3 MPH (3 knots; 1.5 m/s)
Visibility: 2.17 miles (3.49 km)
Ceiling: at least 12,000 feet AGL
Clouds: few clouds at 3000 feet AGL
scattered clouds at 10000 feet AGL
Weather: HZ  (haze)

METAR text: VIDP 192200Z 00000KT 4000 HZ SCT100 30/25 Q1003 NOSIG
Conditions at: VIDP (INDIRA GANDHI/DE, IN) observed 2200 UTC 19 July 2019
Temperature: 30.0°C (86°F)
Dewpoint: 25.0°C (77°F) [RH = 75%]
Pressure (altimeter): 29.62 inches Hg (1003.0 mb)
Winds: calm
Visibility: 2.49 miles (4.01 km)
Ceiling: at least 12,000 feet AGL
Clouds: scattered clouds at 10000 feet AGL
Weather: HZ  (haze)

METAR text: VIDP 192130Z 13004KT 4000 HZ SCT100 30/25 Q1003 NOSIG
Conditions at: VIDP (INDIRA GANDHI/DE, IN) observed 2130 UTC 19 July 2019
Temperature: 30.0°C (86°F)
Dewpoint: 25.0°C (77°F) [RH = 75%]
Pressure (altimeter): 29.62 inches Hg (1003.0 mb)
Winds: from the SE (130 degrees) at 5 MPH (4 knots; 2.1 m/s)
Visibility: 2.49 miles (4.01 km)
Ceiling: at least 12,000 feet AGL
Clouds: scattered clouds at 10000 feet AGL
Weather: HZ  (haze)

METAR text: VIDP 192100Z 13004KT 4000 HZ FEW030 SCT090 30/25 Q1003 NOSIG
Conditions at: VIDP (INDIRA GANDHI/DE, IN) observed 2100 UTC 19 July 2019
Temperature: 30.0°C (86°F)
Dewpoint: 25.0°C (77°F) [RH = 75%]
Pressure (altimeter): 29.62 inches Hg (1003.0 mb)
Winds: from the SE (130 degrees) at 5 MPH (4 knots; 2.1 m/s)
Visibility: 2.49 miles (4.01 km)
Ceiling: at least 12,000 feet AGL
Clouds: few clouds at 3000 feet AGL
scattered clouds at 9000 feet AGL
Weather: HZ  (haze)

METAR text: VIDP 192030Z 12004KT 4000 HZ FEW030 SCT090 30/26 Q1003 NOSIG
Conditions at: VIDP (INDIRA GANDHI/DE, IN) observed 2030 UTC 19 July 2019
Temperature: 30.0°C (86°F)
Dewpoint: 26.0°C (79°F) [RH = 79%]
Pressure (altimeter): 29.62 inches Hg (1003.0 mb)
Winds: from the ESE (120 degrees) at 5 MPH (4 knots; 2.1 m/s)
Visibility: 2.49 miles (4.01 km)
Ceiling: at least 12,000 feet AGL
Clouds: few clouds at 3000 feet AGL
scattered clouds at 9000 feet AGL
Weather: HZ  (haze)

METAR text: VIDP 192000Z 14005KT 4000 HZ FEW030 SCT090 30/26 Q1003 NOSIG
Conditions at: VIDP (INDIRA GANDHI/DE, IN) observed 2000 UTC 19 July 2019
Temperature: 30.0°C (86°F)
Dewpoint: 26.0°C (79°F) [RH = 79%]
Pressure (altimeter): 29.62 inches Hg (1003.0 mb)
Winds: from the SE (140 degrees) at 6 MPH (5 knots; 2.6 m/s)
Visibility: 2.49 miles (4.01 km)
Ceiling: at least 12,000 feet AGL
Clouds: few clouds at 3000 feet AGL
scattered clouds at 9000 feet AGL
Weather: HZ  (haze)

METAR text: VIDP 191930Z 14005KT 4000 HZ FEW030 SCT090 30/26 Q1003 NOSIG
Conditions at: VIDP (INDIRA GANDHI/DE, IN) observed 1930 UTC 19 July 2019
Temperature: 30.0°C (86°F)
Dewpoint: 26.0°C (79°F) [RH = 79%]
Pressure (altimeter): 29.62 inches Hg (1003.0 mb)
Winds: from the SE (140 degrees) at 6 MPH (5 knots; 2.6 m/s)
Visibility: 2.49 miles (4.01 km)
Ceiling: at least 12,000 feet AGL
Clouds: few clouds at 3000 feet AGL
scattered clouds at 9000 feet AGL
Weather: HZ  (haze)

METAR text: VIDP 191900Z 12004KT 4000 HZ FEW030 SCT090 31/26 Q1003 NOSIG
Conditions at: VIDP (INDIRA GANDHI/DE, IN) observed 1900 UTC 19 July 2019
Temperature: 31.0°C (88°F)
Dewpoint: 26.0°C (79°F) [RH = 75%]
Pressure (altimeter): 29.62 inches Hg (1003.0 mb)
Winds: from the ESE (120 degrees) at 5 MPH (4 knots; 2.1 m/s)
Visibility: 2.49 miles (4.01 km)
Ceiling: at least 12,000 feet AGL
Clouds: few clouds at 3000 feet AGL
scattered clouds at 9000 feet AGL
Weather: HZ  (haze)

METAR text: VIDP 191830Z 12003KT 4000 HZ FEW030 SCT090 31/26 Q1003 NOSIG
Conditions at: VIDP (INDIRA GANDHI/DE, IN) observed 1830 UTC 19 July 2019
Temperature: 31.0°C (88°F)
Dewpoint: 26.0°C (79°F) [RH = 75%]
Pressure (altimeter): 29.62 inches Hg (1003.0 mb)
Winds: from the ESE (120 degrees) at 3 MPH (3 knots; 1.5 m/s)
Visibility: 2.49 miles (4.01 km)
Ceiling: at least 12,000 feet AGL
Clouds: few clouds at 3000 feet AGL
scattered clouds at 9000 feet AGL
Weather: HZ  (haze)

METAR text: VIDP 191800Z 15004KT 4000 HZ FEW030 SCT090 31/26 Q1003 NOSIG
Conditions at: VIDP (INDIRA GANDHI/DE, IN) observed 1800 UTC 19 July 2019
Temperature: 31.0°C (88°F)
Dewpoint: 26.0°C (79°F) [RH = 75%]
Pressure (altimeter): 29.62 inches Hg (1003.0 mb)
Winds: from the SSE (150 degrees) at 5 MPH (4 knots; 2.1 m/s)
Visibility: 2.49 miles (4.01 km)
Ceiling: at least 12,000 feet AGL
Clouds: few clouds at 3000 feet AGL
scattered clouds at 9000 feet AGL
Weather: HZ  (haze)

METAR text: VIDP 191730Z 15006KT 4000 HZ FEW030 SCT090 31/26 Q1003 NOSIG
Conditions at: VIDP (INDIRA GANDHI/DE, IN) observed 1730 UTC 19 July 2019
Temperature: 31.0°C (88°F)
Dewpoint: 26.0°C (79°F) [RH = 75%]
Pressure (altimeter): 29.62 inches Hg (1003.0 mb)
Winds: from the SSE (150 degrees) at 7 MPH (6 knots; 3.1 m/s)
Visibility: 2.49 miles (4.01 km)
Ceiling: at least 12,000 feet AGL
Clouds: few clouds at 3000 feet AGL
scattered clouds at 9000 feet AGL
Weather: HZ  (haze)

METAR text: VIDP 191700Z 09005KT 4000 HZ FEW030 SCT090 31/26 Q1002 NOSIG
Conditions at: VIDP (INDIRA GANDHI/DE, IN) observed 1700 UTC 19 July 2019
Temperature: 31.0°C (88°F)
Dewpoint: 26.0°C (79°F) [RH = 75%]
Pressure (altimeter): 29.59 inches Hg (1002.0 mb)
Winds: from the E (90 degrees) at 6 MPH (5 knots; 2.6 m/s)
Visibility: 2.49 miles (4.01 km)
Ceiling: at least 12,000 feet AGL
Clouds: few clouds at 3000 feet AGL
scattered clouds at 9000 feet AGL
Weather: HZ  (haze)

METAR text: VIDP 191630Z 07005KT 3800 HZ FEW030 FEW035CB SCT090 32/26 Q1002 NOSIG
Conditions at: VIDP (INDIRA GANDHI/DE, IN) observed 1630 UTC 19 July 2019
Temperature: 32.0°C (90°F)
Dewpoint: 26.0°C (79°F) [RH = 71%]
Pressure (altimeter): 29.59 inches Hg (1002.0 mb)
Winds: from the ENE (70 degrees) at 6 MPH (5 knots; 2.6 m/s)
Visibility: 2.36 miles (3.80 km)
Ceiling: at least 12,000 feet AGL
Clouds: few clouds at 3000 feet AGL
few clouds at 3500 feet AGL
scattered clouds at 9000 feet AGL
Weather: HZ  (haze)

METAR text: VIDP 191600Z 04004KT 3500 HZ FEW030 FEW035CB SCT100 32/26 Q1002 NOSIG
Conditions at: VIDP (INDIRA GANDHI/DE, IN) observed 1600 UTC 19 July 2019
Temperature: 32.0°C (90°F)
Dewpoint: 26.0°C (79°F) [RH = 71%]
Pressure (altimeter): 29.59 inches Hg (1002.0 mb)
Winds: from the NE (40 degrees) at 5 MPH (4 knots; 2.1 m/s)
Visibility: 2.17 miles (3.49 km)
Ceiling: at least 12,000 feet AGL
Clouds: few clouds at 3000 feet AGL
few clouds at 3500 feet AGL
scattered clouds at 10000 feet AGL
Weather: HZ  (haze)

METAR text: VIDP 191530Z 03004KT 3500 HZ FEW040 SCT100 32/25 Q1002 NOSIG
Conditions at: VIDP (INDIRA GANDHI/DE, IN) observed 1530 UTC 19 July 2019
Temperature: 32.0°C (90°F)
Dewpoint: 25.0°C (77°F) [RH = 67%]
Pressure (altimeter): 29.59 inches Hg (1002.0 mb)
Winds: from the NNE (30 degrees) at 5 MPH (4 knots; 2.1 m/s)
Visibility: 2.17 miles (3.49 km)
Ceiling: at least 12,000 feet AGL
Clouds: few clouds at 4000 feet AGL
scattered clouds at 10000 feet AGL
Weather: HZ  (haze)

METAR text: VIDP 191500Z 06005KT 3500 HZ FEW040 SCT100 32/25 Q1002 NOSIG
Conditions at: VIDP (INDIRA GANDHI/DE, IN) observed 1500 UTC 19 July 2019
Temperature: 32.0°C (90°F)
Dewpoint: 25.0°C (77°F) [RH = 67%]
Pressure (altimeter): 29.59 inches Hg (1002.0 mb)
Winds: from the ENE (60 degrees) at 6 MPH (5 knots; 2.6 m/s)
Visibility: 2.17 miles (3.49 km)
Ceiling: at least 12,000 feet AGL
Clouds: few clouds at 4000 feet AGL
scattered clouds at 10000 feet AGL
Weather: HZ  (haze)

METAR text: VIDP 191430Z 04004KT 3500 HZ FEW040 SCT100 33/25 Q1002 NOSIG
Conditions at: VIDP (INDIRA GANDHI/DE, IN) observed 1430 UTC 19 July 2019
Temperature: 33.0°C (91°F)
Dewpoint: 25.0°C (77°F) [RH = 63%]
Pressure (altimeter): 29.59 inches Hg (1002.0 mb)
Winds: from the NE (40 degrees) at 5 MPH (4 knots; 2.1 m/s)
Visibility: 2.17 miles (3.49 km)
Ceiling: at least 12,000 feet AGL
Clouds: few clouds at 4000 feet AGL
scattered clouds at 10000 feet AGL
Weather: HZ  (haze)

METAR text: VIDP 191400Z 04004KT 3500 HZ FEW035 SCT100 34/25 Q1001 NOSIG
Conditions at: VIDP (INDIRA GANDHI/DE, IN) observed 1400 UTC 19 July 2019
Temperature: 34.0°C (93°F)
Dewpoint: 25.0°C (77°F) [RH = 60%]
Pressure (altimeter): 29.56 inches Hg (1001.0 mb)
Winds: from the NE (40 degrees) at 5 MPH (4 knots; 2.1 m/s)
Visibility: 2.17 miles (3.49 km)
Ceiling: at least 12,000 feet AGL
Clouds: few clouds at 3500 feet AGL
scattered clouds at 10000 feet AGL
Weather: HZ  (haze)

METAR text: VIDP 191330Z 05003KT 3500 HZ SCT035 BKN100 34/26 Q1001 NOSIG
Conditions at: VIDP (INDIRA GANDHI/DE, IN) observed 1330 UTC 19 July 2019
Temperature: 34.0°C (93°F)
Dewpoint: 26.0°C (79°F) [RH = 63%]
Pressure (altimeter): 29.56 inches Hg (1001.0 mb)
Winds: from the NE (50 degrees) at 3 MPH (3 knots; 1.5 m/s)
Visibility: 2.17 miles (3.49 km)
Ceiling: 10000 feet AGL
Clouds: scattered clouds at 3500 feet AGL
broken clouds at 10000 feet AGL
Weather: HZ  (haze)

METAR text: VIDP 191300Z 08004KT 4000 HZ FEW035 SCT100 35/24 Q1001 NOSIG
Conditions at: VIDP (INDIRA GANDHI/DE, IN) observed 1300 UTC 19 July 2019
Temperature: 35.0°C (95°F)
Dewpoint: 24.0°C (75°F) [RH = 53%]
Pressure (altimeter): 29.56 inches Hg (1001.0 mb)
Winds: from the E (80 degrees) at 5 MPH (4 knots; 2.1 m/s)
Visibility: 2.49 miles (4.01 km)
Ceiling: at least 12,000 feet AGL
Clouds: few clouds at 3500 feet AGL
scattered clouds at 10000 feet AGL
Weather: HZ  (haze)

METAR text: VIDP 191230Z 04003KT 4000 HZ SCT035 BKN100 35/24 Q1000 NOSIG
Conditions at: VIDP (INDIRA GANDHI/DE, IN) observed 1230 UTC 19 July 2019
Temperature: 35.0°C (95°F)
Dewpoint: 24.0°C (75°F) [RH = 53%]
Pressure (altimeter): 29.53 inches Hg (1000.0 mb)
Winds: from the NE (40 degrees) at 3 MPH (3 knots; 1.5 m/s)
Visibility: 2.49 miles (4.01 km)
Ceiling: 10000 feet AGL
Clouds: scattered clouds at 3500 feet AGL
broken clouds at 10000 feet AGL
Weather: HZ  (haze)

METAR text: VIDP 191200Z 05004KT 4000 HZ FEW035 SCT100 35/24 Q1000 NOSIG
Conditions at: VIDP (INDIRA GANDHI/DE, IN) observed 1200 UTC 19 July 2019
Temperature: 35.0°C (95°F)
Dewpoint: 24.0°C (75°F) [RH = 53%]
Pressure (altimeter): 29.53 inches Hg (1000.0 mb)
Winds: from the NE (50 degrees) at 5 MPH (4 knots; 2.1 m/s)
Visibility: 2.49 miles (4.01 km)
Ceiling: at least 12,000 feet AGL
Clouds: few clouds at 3500 feet AGL
scattered clouds at 10000 feet AGL
Weather: HZ  (haze)

METAR text: VIDP 191130Z 04005KT 4000 HZ SCT035 BKN100 35/24 Q1000 NOSIG
Conditions at: VIDP (INDIRA GANDHI/DE, IN) observed 1130 UTC 19 July 2019
Temperature: 35.0°C (95°F)
Dewpoint: 24.0°C (75°F) [RH = 53%]
Pressure (altimeter): 29.53 inches Hg (1000.0 mb)
Winds: from the NE (40 degrees) at 6 MPH (5 knots; 2.6 m/s)
Visibility: 2.49 miles (4.01 km)
Ceiling: 10000 feet AGL
Clouds: scattered clouds at 3500 feet AGL
broken clouds at 10000 feet AGL
Weather: HZ  (haze)

METAR text: VIDP 191100Z 05005KT 4000 HZ SCT035 BKN100 36/24 Q1000 NOSIG
Conditions at: VIDP (INDIRA GANDHI/DE, IN) observed 1100 UTC 19 July 2019
Temperature: 36.0°C (97°F)
Dewpoint: 24.0°C (75°F) [RH = 50%]
Pressure (altimeter): 29.53 inches Hg (1000.0 mb)
Winds: from the NE (50 degrees) at 6 MPH (5 knots; 2.6 m/s)
Visibility: 2.49 miles (4.01 km)
Ceiling: 10000 feet AGL
Clouds: scattered clouds at 3500 feet AGL
broken clouds at 10000 feet AGL
Weather: HZ  (haze)

METAR text: VIDP 191030Z 06003KT 4000 HZ SCT035 BKN100 36/24 Q1001 NOSIG
Conditions at: VIDP (INDIRA GANDHI/DE, IN) observed 1030 UTC 19 July 2019
Temperature: 36.0°C (97°F)
Dewpoint: 24.0°C (75°F) [RH = 50%]
Pressure (altimeter): 29.56 inches Hg (1001.0 mb)
Winds: from the ENE (60 degrees) at 3 MPH (3 knots; 1.5 m/s)
Visibility: 2.49 miles (4.01 km)
Ceiling: 10000 feet AGL
Clouds: scattered clouds at 3500 feet AGL
broken clouds at 10000 feet AGL
Weather: HZ  (haze)

METAR text: VIDP 191000Z 02005KT 4000 HZ SCT035 BKN100 36/24 Q1001 NOSIG
Conditions at: VIDP (INDIRA GANDHI/DE, IN) observed 1000 UTC 19 July 2019
Temperature: 36.0°C (97°F)
Dewpoint: 24.0°C (75°F) [RH = 50%]
Pressure (altimeter): 29.56 inches Hg (1001.0 mb)
Winds: from the NNE (20 degrees) at 6 MPH (5 knots; 2.6 m/s)
Visibility: 2.49 miles (4.01 km)
Ceiling: 10000 feet AGL
Clouds: scattered clouds at 3500 feet AGL
broken clouds at 10000 feet AGL
Weather: HZ  (haze)

METAR text: VIDP 190930Z 28004KT 4000 HZ SCT035 BKN100 36/24 Q1001 NOSIG
Conditions at: VIDP (INDIRA GANDHI/DE, IN) observed 0930 UTC 19 July 2019
Temperature: 36.0°C (97°F)
Dewpoint: 24.0°C (75°F) [RH = 50%]
Pressure (altimeter): 29.56 inches Hg (1001.0 mb)
Winds: from the W (280 degrees) at 5 MPH (4 knots; 2.1 m/s)
Visibility: 2.49 miles (4.01 km)
Ceiling: 10000 feet AGL
Clouds: scattered clouds at 3500 feet AGL
broken clouds at 10000 feet AGL
Weather: HZ  (haze)

METAR text: VIDP 190900Z 27004KT 3000 HZ SCT040 BKN100 35/24 Q1002 NOSIG
Conditions at: VIDP (INDIRA GANDHI/DE, IN) observed 0900 UTC 19 July 2019
Temperature: 35.0°C (95°F)
Dewpoint: 24.0°C (75°F) [RH = 53%]
Pressure (altimeter): 29.59 inches Hg (1002.0 mb)
Winds: from the W (270 degrees) at 5 MPH (4 knots; 2.1 m/s)
Visibility: 1.86 miles (2.99 km)
Ceiling: 10000 feet AGL
Clouds: scattered clouds at 4000 feet AGL
broken clouds at 10000 feet AGL
Weather: HZ  (haze)

METAR text: VIDP 190830Z 24004KT 3500 HZ SCT035 BKN100 35/24 Q1002 NOSIG
Conditions at: VIDP (INDIRA GANDHI/DE, IN) observed 0830 UTC 19 July 2019
Temperature: 35.0°C (95°F)
Dewpoint: 24.0°C (75°F) [RH = 53%]
Pressure (altimeter): 29.59 inches Hg (1002.0 mb)
Winds: from the WSW (240 degrees) at 5 MPH (4 knots; 2.1 m/s)
Visibility: 2.17 miles (3.49 km)
Ceiling: 10000 feet AGL
Clouds: scattered clouds at 3500 feet AGL
broken clouds at 10000 feet AGL
Weather: HZ  (haze)

METAR text: VIDP 190800Z 21004KT 3000 HZ SCT040 BKN100 35/24 Q1003 NOSIG
Conditions at: VIDP (INDIRA GANDHI/DE, IN) observed 0800 UTC 19 July 2019
Temperature: 35.0°C (95°F)
Dewpoint: 24.0°C (75°F) [RH = 53%]
Pressure (altimeter): 29.62 inches Hg (1003.0 mb)
Winds: from the SSW (210 degrees) at 5 MPH (4 knots; 2.1 m/s)
Visibility: 1.86 miles (2.99 km)
Ceiling: 10000 feet AGL
Clouds: scattered clouds at 4000 feet AGL
broken clouds at 10000 feet AGL
Weather: HZ  (haze)

METAR text: VIDP 190730Z 24003KT 3000 HZ SCT040 BKN100 34/25 Q1003 NOSIG
Conditions at: VIDP (INDIRA GANDHI/DE, IN) observed 0730 UTC 19 July 2019
Temperature: 34.0°C (93°F)
Dewpoint: 25.0°C (77°F) [RH = 60%]
Pressure (altimeter): 29.62 inches Hg (1003.0 mb)
Winds: from the WSW (240 degrees) at 3 MPH (3 knots; 1.5 m/s)
Visibility: 1.86 miles (2.99 km)
Ceiling: 10000 feet AGL
Clouds: scattered clouds at 4000 feet AGL
broken clouds at 10000 feet AGL
Weather: HZ  (haze)

METAR text: VIDP 190700Z 25005KT 3000 HZ SCT040 BKN100 34/24 Q1004 NOSIG
Conditions at: VIDP (INDIRA GANDHI/DE, IN) observed 0700 UTC 19 July 2019
Temperature: 34.0°C (93°F)
Dewpoint: 24.0°C (75°F) [RH = 56%]
Pressure (altimeter): 29.65 inches Hg (1004.0 mb)
Winds: from the WSW (250 degrees) at 6 MPH (5 knots; 2.6 m/s)
Visibility: 1.86 miles (2.99 km)
Ceiling: 10000 feet AGL
Clouds: scattered clouds at 4000 feet AGL
broken clouds at 10000 feet AGL
Weather: HZ  (haze)

METAR text: VIDP 190630Z 20004KT 3000 HZ SCT040 BKN100 33/25 Q1004 NOSIG
Conditions at: VIDP (INDIRA GANDHI/DE, IN) observed 0630 UTC 19 July 2019
Temperature: 33.0°C (91°F)
Dewpoint: 25.0°C (77°F) [RH = 63%]
Pressure (altimeter): 29.65 inches Hg (1004.0 mb)
Winds: from the SSW (200 degrees) at 5 MPH (4 knots; 2.1 m/s)
Visibility: 1.86 miles (2.99 km)
Ceiling: 10000 feet AGL
Clouds: scattered clouds at 4000 feet AGL
broken clouds at 10000 feet AGL
Weather: HZ  (haze)

METAR text: VIDP 190600Z 16003KT 3000 HZ SCT040 BKN100 33/24 Q1004 NOSIG
Conditions at: VIDP (INDIRA GANDHI/DE, IN) observed 0600 UTC 19 July 2019
Temperature: 33.0°C (91°F)
Dewpoint: 24.0°C (75°F) [RH = 59%]
Pressure (altimeter): 29.65 inches Hg (1004.0 mb)
Winds: from the SSE (160 degrees) at 3 MPH (3 knots; 1.5 m/s)
Visibility: 1.86 miles (2.99 km)
Ceiling: 10000 feet AGL
Clouds: scattered clouds at 4000 feet AGL
broken clouds at 10000 feet AGL
Weather: HZ  (haze)

METAR text: VIDP 190530Z 16003KT 3000 HZ SCT040 BKN100 33/24 Q1004 NOSIG
Conditions at: VIDP (INDIRA GANDHI/DE, IN) observed 0530 UTC 19 July 2019
Temperature: 33.0°C (91°F)
Dewpoint: 24.0°C (75°F) [RH = 59%]
Pressure (altimeter): 29.65 inches Hg (1004.0 mb)
Winds: from the SSE (160 degrees) at 3 MPH (3 knots; 1.5 m/s)
Visibility: 1.86 miles (2.99 km)
Ceiling: 10000 feet AGL
Clouds: scattered clouds at 4000 feet AGL
broken clouds at 10000 feet AGL
Weather: HZ  (haze)

METAR text: VIDP 190500Z 11004KT 3000 HZ SCT040 BKN100 32/25 Q1004 NOSIG
Conditions at: VIDP (INDIRA GANDHI/DE, IN) observed 0500 UTC 19 July 2019
Temperature: 32.0°C (90°F)
Dewpoint: 25.0°C (77°F) [RH = 67%]
Pressure (altimeter): 29.65 inches Hg (1004.0 mb)
Winds: from the ESE (110 degrees) at 5 MPH (4 knots; 2.1 m/s)
Visibility: 1.86 miles (2.99 km)
Ceiling: 10000 feet AGL
Clouds: scattered clouds at 4000 feet AGL
broken clouds at 10000 feet AGL
Weather: HZ  (haze)

METAR text: VIDP 190430Z 12005KT 3000 HZ FEW030 FEW035CB SCT100 31/25 Q1004 NOSIG
Conditions at: VIDP (INDIRA GANDHI/DE, IN) observed 0430 UTC 19 July 2019
Temperature: 31.0°C (88°F)
Dewpoint: 25.0°C (77°F) [RH = 71%]
Pressure (altimeter): 29.65 inches Hg (1004.0 mb)
Winds: from the ESE (120 degrees) at 6 MPH (5 knots; 2.6 m/s)
Visibility: 1.86 miles (2.99 km)
Ceiling: at least 12,000 feet AGL
Clouds: few clouds at 3000 feet AGL
few clouds at 3500 feet AGL
scattered clouds at 10000 feet AGL
Weather: HZ  (haze)

METAR text: VIDP 190400Z 12005KT 2800 HZ FEW030 FEW035CB SCT100 31/24 Q1004 BECMG 3000 HZ
Conditions at: VIDP (INDIRA GANDHI/DE, IN) observed 0400 UTC 19 July 2019
Temperature: 31.0°C (88°F)
Dewpoint: 24.0°C (75°F) [RH = 66%]
Pressure (altimeter): 29.65 inches Hg (1004.0 mb)
Winds: from the ESE (120 degrees) at 6 MPH (5 knots; 2.6 m/s)
Visibility: 1.74 miles (2.80 km)
Ceiling: at least 12,000 feet AGL
Clouds: few clouds at 3000 feet AGL
few clouds at 3500 feet AGL
scattered clouds at 10000 feet AGL
Weather: HZ  (haze)

METAR text: VIDP 190330Z 12006KT 2500 HZ FEW030 FEW035CB SCT100 30/24 Q1004 BECMG 3000 HZ
Conditions at: VIDP (INDIRA GANDHI/DE, IN) observed 0330 UTC 19 July 2019
Temperature: 30.0°C (86°F)
Dewpoint: 24.0°C (75°F) [RH = 70%]
Pressure (altimeter): 29.65 inches Hg (1004.0 mb)
Winds: from the ESE (120 degrees) at 7 MPH (6 knots; 3.1 m/s)
Visibility: 1.55 miles (2.49 km)
Ceiling: at least 12,000 feet AGL
Clouds: few clouds at 3000 feet AGL
few clouds at 3500 feet AGL
scattered clouds at 10000 feet AGL
Weather: HZ  (haze)

METAR text: VIDP 190300Z 11006KT 2200 BR FEW030 FEW035CB SCT100 29/25 Q1003 TEMPO 27010G20KT 1000 TSRA
Conditions at: VIDP (INDIRA GANDHI/DE, IN) observed 0300 UTC 19 July 2019
Temperature: 29.0°C (84°F)
Dewpoint: 25.0°C (77°F) [RH = 79%]
Pressure (altimeter): 29.62 inches Hg (1003.0 mb)
Winds: from the ESE (110 degrees) at 7 MPH (6 knots; 3.1 m/s)
Visibility: 1.37 miles (2.20 km)
Ceiling: at least 12,000 feet AGL
Clouds: few clouds at 3000 feet AGL
few clouds at 3500 feet AGL
scattered clouds at 10000 feet AGL
Weather: BR  (mist)

METAR text: VIDP 190230Z 12006KT 2200 BR FEW030 FEW035CB SCT100 28/24 Q1003 TEMPO 27010G20KT 1000 TSRA
Conditions at: VIDP (INDIRA GANDHI/DE, IN) observed 0230 UTC 19 July 2019
Temperature: 28.0°C (82°F)
Dewpoint: 24.0°C (75°F) [RH = 79%]
Pressure (altimeter): 29.62 inches Hg (1003.0 mb)
Winds: from the ESE (120 degrees) at 7 MPH (6 knots; 3.1 m/s)
Visibility: 1.37 miles (2.20 km)
Ceiling: at least 12,000 feet AGL
Clouds: few clouds at 3000 feet AGL
few clouds at 3500 feet AGL
scattered clouds at 10000 feet AGL
Weather: BR  (mist)

METAR text: VIDP 190200Z 00000KT 2200 BR FEW030 FEW035CB SCT100 28/25 Q1004 TEMPO 27010G20KT 1000 TSRA
Conditions at: VIDP (INDIRA GANDHI/DE, IN) observed 0200 UTC 19 July 2019
Temperature: 28.0°C (82°F)
Dewpoint: 25.0°C (77°F) [RH = 84%]
Pressure (altimeter): 29.65 inches Hg (1004.0 mb)
Winds: calm
Visibility: 1.37 miles (2.20 km)
Ceiling: at least 12,000 feet AGL
Clouds: few clouds at 3000 feet AGL
few clouds at 3500 feet AGL
scattered clouds at 10000 feet AGL
Weather: BR  (mist)

Forecast for: VIDP (INDIRA GANDHI/DE, IN)
Text: TAF VIDP 201100Z 2012/2118 14005KT 3000 BR -RA SCT030 BKN090
Forecast period: 1200 UTC 20 July 2019 to 1800 UTC 21 July 2019
Forecast type: FROM: standard forecast or significant change
Winds: from the SE (140 degrees) at 6 MPH (5 knots; 2.6 m/s)
Visibility: 1.86 miles (2.99 km)
Ceiling: 9000 feet AGL
Clouds: scattered clouds at 3000 feet AGL
broken clouds at 9000 feet AGL
Weather: BR -RA  (mist, light rain)
Text: BECMG 2012/2016 25010G20KT 1500 TSRA SCT030 FEW035CB OVC080
Forecast period: 1200 to 1800 UTC 20 July 2019
Forecast type: BECOMING: Conditions expected to become as follows by 1600 UTC 20 July 2019
Winds: from the WSW (250 degrees) at 12 MPH (10 knots; 5.1 m/s)
gusting to 23 MPH (20 knots; 10.3 m/s)
Visibility: 0.93 miles (1.50 km)
Ceiling: 8000 feet AGL
Clouds: scattered clouds at 3000 feet AGL
few clouds at 3500 feet AGL
overcast cloud deck at 8000 feet AGL
Weather: TSRA  (rain associated with thunderstorm(s))
Text: BECMG 2018/2020 VRB02KT 2500 HZ BR FEW030 SCT100
Forecast period: 1800 to 2200 UTC 20 July 2019
Forecast type: BECOMING: Conditions expected to become as follows by 2000 UTC 20 July 2019
Winds: variable direction winds at 2 MPH (2 knots; 1.0 m/s)
Visibility: 1.55 miles (2.49 km)
Ceiling: at least 12,000 feet AGL
Clouds: few clouds at 3000 feet AGL
scattered clouds at 10000 feet AGL
Weather: HZ BR  (haze, mist)
Text: BECMG 2022/2103 1500 TSRA FEW035CB OVC080
Forecast period: 2200 UTC 20 July 2019 to 0500 UTC 21 July 2019
Forecast type: BECOMING: Conditions expected to become as follows by 0300 UTC 21 July 2019
Winds: variable direction winds at 2 MPH (2 knots; 1.0 m/s)
Visibility: 0.93 miles (1.50 km)
Ceiling: 8000 feet AGL
Clouds: few clouds at 3500 feet AGL
overcast cloud deck at 8000 feet AGL
Weather: TSRA  (rain associated with thunderstorm(s))
Text: BECMG 2105/2107 07008KT 4000 HZ SCT035 BKN090
Forecast period: 0500 to 0800 UTC 21 July 2019
Forecast type: BECOMING: Conditions expected to become as follows by 0700 UTC 21 July 2019
Winds: from the ENE (70 degrees) at 9 MPH (8 knots; 4.1 m/s)
Visibility: 2.49 miles (4.01 km)
Ceiling: 9000 feet AGL
Clouds: scattered clouds at 3500 feet AGL
broken clouds at 9000 feet AGL
Weather: HZ  (haze)
Text: BECMG 2108/2112 FEW035CB
Forecast period: 0800 to 1800 UTC 21 July 2019
Forecast type: BECOMING: Conditions expected to become as follows by 1200 UTC 21 July 2019
Winds: from the ENE (70 degrees) at 9 MPH (8 knots; 4.1 m/s)
Visibility: 2.49 miles (4.01 km)
Ceiling: at least 12,000 feet AGL
Clouds: few clouds at 3500 feet AGL
Weather: HZ  (haze)